Time;durP1;ratioP1;P1;durP2;ratioP2;P2;SDS_P1;SDS_P2;PMS_P1;PMS_P2;Temp;Humidity;BMP_temperature;BMP_pressure;BME280_temperature;BME280_humidity;BME280_pressure;Samples;Min_cycle;Max_cycle;Signal;HPM_P1;HPM_P2
2023/05/08 00:04:48;;;;;;;19.58;11.70;;;;;;;11.44;83.51;97775.97;10370150;28;20124;-50
2023/05/08 00:09:47;;;;;;;18.13;12.32;;;;;;;11.03;83.68;97712.94;10370968;28;20135;-52
2023/05/08 00:14:46;;;;;;;16.83;12.25;;;;;;;11.25;83.95;97764.78;10370575;28;20124;-51
2023/05/08 00:19:45;;;;;;;16.75;11.98;;;;;;;11.28;83.54;97774.31;10370159;28;20036;-52
2023/05/08 00:24:44;;;;;;;16.88;12.40;;;;;;;11.12;83.86;97737.13;10370000;28;20543;-52
2023/05/08 00:29:43;;;;;;;;;;;;;;;11.18;84.97;97778.66;10369744;28;20214;-51
2023/05/08 00:34:41;;;;;;;16.33;10.65;;;;;;;11.25;84.21;97785.56;10368731;28;20018;-52
2023/05/08 00:39:40;;;;;;;16.35;11.25;;;;;;;11.22;84.67;97785.56;10369633;28;20051;-50
2023/05/08 00:44:40;;;;;;;16.92;11.45;;;;;;;10.92;84.85;97747.59;10368593;28;20033;-52
2023/05/08 00:49:39;;;;;;;;;;;;;;;11.20;84.94;97790.78;10365866;28;20067;-51
2023/05/08 00:54:39;;;;;;;14.75;10.90;;;;;;;11.13;85.10;97796.00;10364894;28;19920;-51
2023/05/08 00:59:40;;;;;;;15.07;10.63;;;;;;;10.42;86.03;97702.63;10365023;28;20562;-52
2023/05/08 01:04:40;;;;;;;18.73;11.65;;;;;;;10.91;86.07;97800.34;10364976;28;20172;-51
2023/05/08 01:09:39;;;;;;;16.38;11.27;;;;;;;10.96;85.42;97793.41;10364756;28;20063;-50
2023/05/08 01:14:57;;;;;;;17.20;10.35;;;;;;;11.00;85.27;97785.63;10364505;28;20036;-51
2023/05/08 01:20:20;;;;;;;17.23;10.50;;;;;;;10.98;85.25;97784.75;10364631;28;20487;-51
2023/05/08 01:25:28;;;;;;;16.58;11.30;;;;;;;10.99;85.19;97776.13;10365745;28;20503;-50
2023/05/08 01:30:26;;;;;;;17.48;11.40;;;;;;;11.01;85.03;97773.50;10363944;28;20377;-50
2023/05/08 01:35:36;;;;;;;17.20;11.88;;;;;;;10.98;85.27;97784.75;10365078;28;20229;-52
2023/05/08 01:41:07;;;;;;;18.63;13.05;;;;;;;10.81;86.05;97773.53;10363349;28;20605;-51
2023/05/08 01:46:13;;;;;;;21.90;12.43;;;;;;;10.73;86.57;97776.13;10364818;28;20068;-51
2023/05/08 01:51:18;;;;;;;16.92;12.55;;;;;;;10.76;86.11;97785.66;10363025;28;20128;-51
2023/05/08 01:56:22;;;;;;;17.27;13.23;;;;;;;10.74;86.71;97777.00;10363520;28;20080;-52
2023/05/08 02:01:24;;;;;;;15.40;12.13;;;;;;;10.70;86.81;97781.31;10360672;28;20124;-50
2023/05/08 02:06:24;;;;;;;23.10;14.32;;;;;;;10.62;87.24;97767.50;10363316;28;20072;-51
2023/05/08 02:11:24;;;;;;;19.98;13.52;;;;;;;10.54;88.09;97785.66;10363153;28;20414;-51
2023/05/08 02:16:25;;;;;;;18.58;13.82;;;;;;;10.59;88.59;97783.94;10361331;28;20123;-51
2023/05/08 02:21:26;;;;;;;19.80;14.65;;;;;;;10.53;87.68;97788.25;10364347;28;20571;-52
2023/05/08 02:26:26;;;;;;;19.08;15.43;;;;;;;10.56;88.34;97785.66;10361551;28;20129;-51
2023/05/08 02:31:27;;;;;;;22.05;15.88;;;;;;;10.51;88.59;97796.03;10361083;28;20115;-51
2023/05/08 02:36:29;;;;;;;19.20;14.10;;;;;;;10.52;88.11;97799.47;10361923;28;20075;-51
2023/05/08 02:41:32;;;;;;;27.48;15.40;;;;;;;10.44;88.40;97794.31;10358829;28;20148;-50
2023/05/08 02:46:40;;;;;;;21.50;15.85;;;;;;;10.32;88.98;97796.91;10361630;28;20061;-52
2023/05/08 02:52:00;;;;;;;21.92;15.25;;;;;;;10.31;88.61;97795.19;10363500;28;20068;-51
2023/05/08 02:57:07;;;;;;;21.25;15.60;;;;;;;10.23;89.03;97789.09;10363912;28;20060;-52
2023/05/08 03:02:21;;;;;;;23.83;15.80;;;;;;;10.17;89.24;97796.03;10363352;28;20056;-52
2023/05/08 03:07:24;;;;;;;21.92;16.08;;;;;;;10.16;89.31;97798.59;10363653;28;20060;-52
2023/05/08 03:12:27;;;;;;;24.38;16.67;;;;;;;10.08;90.25;97793.41;10363381;28;20068;-52
2023/05/08 03:17:30;;;;;;;20.95;15.63;;;;;;;10.05;90.59;97793.44;10363495;28;20072;-50
2023/05/08 03:22:30;;;;;;;23.77;16.23;;;;;;;9.97;90.43;97802.91;10363562;28;20068;-52
2023/05/08 03:27:30;;;;;;;25.15;15.38;;;;;;;9.98;90.37;97799.47;10361859;28;20061;-51
2023/05/08 03:32:32;;;;;;;28.77;17.90;;;;;;;10.01;90.33;97799.47;10362715;28;20071;-52
2023/05/08 03:37:31;;;;;;;25.42;17.95;;;;;;;9.57;90.67;97723.34;10363682;28;20060;-52
2023/05/08 03:42:31;;;;;;;27.70;18.67;;;;;;;10.19;89.82;97808.97;10363203;28;20482;-52
2023/05/08 03:47:31;;;;;;;24.83;17.40;;;;;;;10.25;89.31;97801.22;10360613;28;20076;-53
2023/05/08 03:52:31;;;;;;;25.73;17.15;;;;;;;10.26;89.68;97791.69;10359213;28;20083;-53
2023/05/08 03:57:38;;;;;;;24.83;16.27;;;;;;;10.36;88.96;97802.09;10359829;28;20064;-52
2023/05/08 04:02:45;;;;;;;21.95;15.40;;;;;;;10.53;88.50;97801.22;10359024;28;20179;-51
2023/05/08 04:08:03;;;;;;;36.03;20.88;;;;;;;10.68;88.21;97802.94;10358705;28;20152;-51
2023/05/08 04:13:09;;;;;;;27.52;19.63;;;;;;;10.77;87.89;97808.13;10365400;28;20116;-51
2023/05/08 04:18:15;;;;;;;26.45;18.40;;;;;;;10.98;87.80;97800.34;10366481;28;20127;-52
2023/05/08 04:23:19;;;;;;;27.92;18.63;;;;;;;11.23;87.46;97803.75;10366647;28;20498;-50
2023/05/08 04:28:20;;;;;;;25.02;16.23;;;;;;;11.52;86.40;97805.38;10366747;28;20073;-51
2023/05/08 04:33:19;;;;;;;20.83;15.05;;;;;;;11.76;84.90;97801.81;10365243;28;20116;-52
2023/05/08 04:38:18;;;;;;;26.48;17.25;;;;;;;11.94;84.25;97818.19;10366187;28;20041;-52
2023/05/08 04:43:17;;;;;;;26.52;17.25;;;;;;;12.10;83.52;97814.63;10365333;28;20045;-52
2023/05/08 04:48:17;;;;;;;21.63;15.65;;;;;;;12.31;83.59;97803.25;10365340;28;20402;-51
2023/05/08 04:53:16;;;;;;;19.35;14.07;;;;;;;12.62;82.64;97808.22;10364139;28;20120;-51
2023/05/08 04:58:15;;;;;;;;;;;;;;;12.92;81.77;97801.88;10364277;28;20483;-51
2023/05/08 05:03:14;;;;;;;18.20;14.45;;;;;;;13.12;80.28;97799.06;10363058;28;20496;-52
2023/05/08 05:08:13;;;;;;;;;;;;;;;13.28;79.71;97786.72;10364630;28;20111;-51
2023/05/08 05:13:12;;;;;;;17.67;12.85;;;;;;;13.31;78.52;97768.47;10360990;28;19964;-52
2023/05/08 05:18:11;;;;;;;;;;;;;;;13.69;76.60;97782.81;10364855;28;20102;-52
2023/05/08 05:23:10;;;;;;;21.70;14.17;;;;;;;13.91;75.00;97778.16;10363262;28;20437;-52
2023/05/08 05:28:09;;;;;;;20.45;13.80;;;;;;;14.06;75.61;97785.75;10363821;28;20530;-52
2023/05/08 05:33:08;;;;;;;;;;;;;;;14.41;74.60;97773.94;10362946;28;20394;-52
2023/05/08 05:38:07;;;;;;;22.08;14.30;;;;;;;14.73;73.10;97769.94;10362820;28;19912;-52
2023/05/08 05:43:06;;;;;;;21.63;14.27;;;;;;;15.03;71.62;97765.91;10363139;28;20384;-52
2023/05/08 05:48:05;;;;;;;;;;;;;;;15.10;71.75;97762.28;10365692;28;20068;-52
2023/05/08 05:53:04;;;;;;;28.48;21.48;;;;;;;15.33;70.48;97764.47;10365900;28;20108;-52
2023/05/08 05:58:03;;;;;;;34.40;22.45;;;;;;;15.63;69.71;97754.28;10364525;28;20071;-52
2023/05/08 06:03:02;;;;;;;;;;;;;;;15.94;66.43;97756.25;10365940;28;20033;-52
2023/05/08 06:08:01;;;;;;;27.53;19.30;;;;;;;16.20;66.60;97745.16;10364996;28;19960;-52
2023/05/08 06:13:05;;;;;;;26.15;15.77;;;;;;;16.56;66.90;97746.03;10364496;28;20057;-53
2023/05/08 06:18:04;;;;;;;17.55;11.05;;;;;;;16.70;64.10;97745.69;10364869;28;20506;-53
2023/05/08 06:23:04;;;;;;;16.70;9.88;;;;;;;16.71;62.98;97735.16;10367200;28;20076;-52
2023/05/08 06:28:05;;;;;;;12.93;8.57;;;;;;;16.93;61.13;97743.38;10366512;28;20091;-52
2023/05/08 06:33:04;;;;;;;10.55;7.07;;;;;;;17.25;58.54;97735.50;10367528;28;20068;-52
2023/05/08 06:38:03;;;;;;;11.20;6.55;;;;;;;17.68;57.71;97735.13;10368288;28;20041;-52
2023/05/08 06:43:02;;;;;;;11.98;6.93;;;;;;;18.06;55.77;97738.38;10367344;28;20523;-52
2023/05/08 06:48:01;;;;;;;11.20;6.95;;;;;;;18.00;55.59;97733.31;10366595;28;20451;-52
2023/05/08 06:53:00;;;;;;;12.32;7.90;;;;;;;18.23;56.03;97742.25;10364178;28;20028;-53
2023/05/08 06:57:59;;;;;;;9.82;7.80;;;;;;;18.42;56.24;97738.09;10364173;28;20035;-52
2023/05/08 07:02:58;;;;;;;11.68;7.22;;;;;;;18.61;55.34;97739.19;10363987;28;21447;-52
2023/05/08 07:07:57;;;;;;;9.75;7.93;;;;;;;18.94;55.59;97725.84;10363441;28;20479;-52
2023/05/08 07:12:56;;;;;;;10.10;6.57;;;;;;;19.22;54.26;97728.34;10363584;28;20044;-52
2023/05/08 07:17:55;;;;;;;9.68;7.72;;;;;;;19.19;54.13;97702.16;10366504;28;20031;-53
2023/05/08 07:22:53;;;;;;;12.68;8.23;;;;;;;19.61;54.07;97727.81;10363925;28;20040;-53
2023/05/08 07:27:52;;;;;;;8.90;7.90;;;;;;;19.83;53.58;97730.47;10364148;28;20036;-53
2023/05/08 07:32:51;;;;;;;8.40;6.90;;;;;;;20.06;53.03;97729.56;10362918;28;20411;-53
2023/05/08 07:37:50;;;;;;;12.98;7.90;;;;;;;20.11;54.32;97728.53;10364199;28;20033;-53
2023/05/08 07:42:49;;;;;;;10.85;7.03;;;;;;;20.36;53.39;97725.78;10361539;28;20029;-53
2023/05/08 07:47:49;;;;;;;8.82;6.40;;;;;;;20.21;54.27;97671.91;10370444;28;20049;-53
2023/05/08 07:52:48;;;;;;;12.35;7.10;;;;;;;20.62;53.16;97701.00;10373655;28;20140;-53
2023/05/08 07:57:47;;;;;;;12.25;6.30;;;;;;;20.96;51.73;97712.72;10371940;28;20116;-54
2023/05/08 08:02:46;;;;;;;11.98;6.47;;;;;;;21.19;51.87;97727.56;10370047;28;20041;-54
2023/05/08 08:07:45;;;;;;;11.15;6.30;;;;;;;21.52;51.59;97719.94;10370518;28;20087;-54
2023/05/08 08:12:44;;;;;;;8.82;5.30;;;;;;;21.71;48.45;97710.25;10367772;28;20047;-54
2023/05/08 08:17:43;;;;;;;8.15;4.75;;;;;;;22.11;47.16;97713.66;10369337;28;20064;-54
2023/05/08 08:22:42;;;;;;;6.65;5.10;;;;;;;22.41;46.45;97704.28;10369134;28;20035;-54
2023/05/08 08:27:41;;;;;;;6.70;4.95;;;;;;;22.65;45.76;97703.06;10370105;28;20139;-53
2023/05/08 08:32:40;;;;;;;6.30;4.70;;;;;;;23.11;44.19;97711.31;10370945;28;20577;-54
2023/05/08 08:37:39;;;;;;;8.10;5.05;;;;;;;22.22;43.19;97525.47;10370407;28;20583;-54
2023/05/08 08:42:38;;;;;;;7.82;5.40;;;;;;;23.40;42.69;97706.28;10368244;28;20594;-54
2023/05/08 08:47:43;;;;;;;5.45;4.82;;;;;;;23.75;40.90;97699.09;10368741;28;20048;-54
2023/05/08 08:53:00;;;;;;;8.20;5.20;;;;;;;24.23;40.78;97688.47;10369032;28;20064;-54
2023/05/08 08:58:03;;;;;;;5.57;4.38;;;;;;;24.80;38.33;97690.44;10367615;28;20072;-54
2023/05/08 09:03:06;;;;;;;6.63;5.13;;;;;;;25.19;38.20;97628.78;10368640;28;20060;-54
2023/05/08 09:08:08;;;;;;;6.20;4.95;;;;;;;24.99;37.19;97690.22;10368991;28;20068;-54
2023/05/08 09:13:07;;;;;;;7.28;4.40;;;;;;;24.53;37.22;97683.19;10367048;28;20063;-54
2023/05/08 09:18:06;;;;;;;7.22;5.05;;;;;;;24.25;38.68;97679.47;10367563;28;20035;-54
2023/05/08 09:23:05;;;;;;;5.95;4.63;;;;;;;23.69;38.55;97666.78;10366778;28;20513;-54
2023/05/08 09:28:14;;;;;;;7.40;5.47;;;;;;;23.78;38.19;97690.94;10365673;28;20076;-54
2023/05/08 09:33:13;;;;;;;5.93;5.07;;;;;;;23.20;39.41;97702.03;10367789;28;20830;-54
2023/05/08 09:38:31;;;;;;;8.40;4.80;;;;;;;21.85;46.84;97738.66;10368072;28;20645;-54
2023/05/08 09:43:30;;;;;;;9.67;7.00;;;;;;;20.65;52.30;97732.50;10366893;28;20498;-53
2023/05/08 09:48:36;;;;;;;8.57;6.75;;;;;;;19.68;56.59;97719.69;10366276;28;20446;-53
2023/05/08 09:53:35;;;;;;;7.38;5.70;;;;;;;19.23;59.13;97729.22;10366368;28;20502;-53
2023/05/08 09:58:41;;;;;;;8.68;6.38;;;;;;;19.47;61.87;97740.59;10367872;28;20068;-54
2023/05/08 10:03:50;;;;;;;8.93;6.63;;;;;;;20.04;61.53;97741.09;10365105;28;20065;-54
2023/05/08 10:09:05;;;;;;;8.33;5.60;;;;;;;20.52;57.04;97742.72;10359391;28;20072;-53
2023/05/08 10:14:04;;;;;;;7.68;5.88;;;;;;;20.92;55.38;97760.34;10359158;28;20398;-53
2023/05/08 10:19:10;;;;;;;8.25;5.70;;;;;;;21.12;51.92;97762.16;10364105;28;20046;-53
2023/05/08 10:24:18;;;;;;;7.05;4.85;;;;;;;21.38;51.31;97759.28;10360104;28;20127;-53
2023/05/08 10:29:23;;;;;;;10.00;5.72;;;;;;;21.20;51.52;97776.78;10359882;28;20131;-53
2023/05/08 10:34:24;;;;;;;9.43;6.30;;;;;;;21.16;51.06;97743.53;10364083;28;20112;-54
2023/05/08 10:39:24;;;;;;;8.80;5.82;;;;;;;21.46;50.36;97794.16;10364124;28;20115;-54
2023/05/08 10:44:25;;;;;;;9.93;6.32;;;;;;;21.12;51.85;97787.66;10363710;28;20079;-54
2023/05/08 10:49:35;;;;;;;8.65;6.20;;;;;;;20.74;53.21;97789.28;10367117;28;20068;-53
2023/05/08 10:54:41;;;;;;;9.07;6.65;;;;;;;20.88;53.50;97793.06;10367009;28;20057;-53
2023/05/08 10:59:47;;;;;;;15.50;7.95;;;;;;;20.67;53.42;97735.94;10364710;28;20079;-54
2023/05/08 11:04:46;;;;;;;8.35;6.63;;;;;;;21.66;50.36;97785.31;10362423;28;20487;-54
2023/05/08 11:09:46;;;;;;;10.57;7.00;;;;;;;21.50;48.19;97754.34;10361504;28;20068;-54
2023/05/08 11:14:56;;;;;;;8.95;6.50;;;;;;;21.51;48.70;97779.81;10365180;28;20099;-53
2023/05/08 11:20:00;;;;;;;8.73;5.57;;;;;;;21.30;47.74;97772.84;10368874;28;20045;-53
2023/05/08 11:25:05;;;;;;;9.13;6.25;;;;;;;20.81;49.50;97785.47;10375565;28;20060;-53
2023/05/08 11:30:40;;;;;;;11.25;8.77;;;;;;;20.97;49.33;97785.69;10371887;28;20072;-53
2023/05/08 11:35:50;;;;;;;8.98;5.25;;;;;;;20.76;49.01;97790.09;10361446;28;20159;-53
2023/05/08 11:41:02;;;;;;;6.80;5.50;;;;;;;20.39;50.31;97783.63;10376086;28;20056;-52
2023/05/08 11:46:09;;;;;;;7.10;5.57;;;;;;;20.21;51.58;97785.22;10376742;28;20330;-53
2023/05/08 11:51:08;;;;;;;10.38;5.82;;;;;;;19.77;50.51;97700.91;10373128;28;20123;-52
2023/05/08 11:56:08;;;;;;;8.38;5.07;;;;;;;20.52;49.58;97771.72;10372519;28;20120;-53
2023/05/08 12:01:07;;;;;;;10.95;5.30;;;;;;;20.00;50.31;97779.00;10373290;28;20075;-52
2023/05/08 12:06:06;;;;;;;7.20;5.60;;;;;;;19.64;52.16;97779.50;10373230;28;20031;-53
2023/05/08 12:11:05;;;;;;;8.85;5.45;;;;;;;19.26;52.07;97762.44;10371952;28;20518;-52
2023/05/08 12:16:04;;;;;;;12.27;6.50;;;;;;;19.18;53.36;97805.69;10372885;28;20037;-52
2023/05/08 12:21:03;;;;;;;9.55;6.00;;;;;;;18.43;55.11;97750.31;10373521;28;20480;-52
2023/05/08 12:26:02;;;;;;;11.93;6.35;;;;;;;18.66;57.58;97796.00;10372510;28;20107;-52
2023/05/08 12:31:02;;;;;;;8.70;6.70;;;;;;;18.40;62.11;97814.34;10367924;28;20120;-52
2023/05/08 12:36:01;;;;;;;9.80;6.70;;;;;;;17.67;64.75;97820.00;10357106;28;20112;-51
2023/05/08 12:41:03;;;;;;;11.18;7.28;;;;;;;17.27;67.99;97834.22;10362795;28;20467;-52
2023/05/08 12:46:03;;;;;;;12.85;8.88;;;;;;;16.77;72.21;97848.56;10365172;28;20554;-52
2023/05/08 12:51:03;;;;;;;14.40;11.13;;;;;;;15.66;81.09;97845.75;10368642;28;20068;-52
2023/05/08 12:56:03;;;;;;;18.33;12.38;;;;;;;14.43;91.01;97800.00;10369113;28;20079;-48
2023/05/08 13:01:15;;;;;;;19.08;12.63;;;;;;;14.62;94.85;97866.72;10368387;28;20057;-51
2023/05/08 13:06:21;;;;;;;18.63;11.40;;;;;;;14.69;95.29;97875.34;10368908;28;20128;-52
2023/05/08 13:11:30;;;;;;;17.73;13.98;;;;;;;14.76;97.31;97877.84;10370549;28;20068;-51
2023/05/08 13:16:29;;;;;;;19.02;15.20;;;;;;;14.95;99.43;97865.34;10368544;28;20079;-50
2023/05/08 13:21:28;;;;;;;19.65;15.35;;;;;;;15.30;100.00;97868.25;10400091;28;20060;-51
2023/05/08 13:26:27;;;;;;;18.25;14.10;;;;;;;15.49;100.00;97874.84;10409483;28;20123;-49
2023/05/08 13:31:26;;;;;;;21.38;14.30;;;;;;;15.23;98.62;97889.25;10408432;28;20032;-50
2023/05/08 13:36:26;;;;;;;;;;;;;;;14.69;97.86;97884.03;10408156;28;20132;-50
2023/05/08 13:41:25;;;;;;;15.90;10.93;;;;;;;14.40;95.88;97892.28;10407333;28;20013;-50
2023/05/08 13:46:24;;;;;;;;;;;;;;;14.12;95.29;97889.19;10406859;28;20043;-49
2023/05/08 13:51:22;;;;;;;15.60;10.23;;;;;;;14.03;96.59;97895.41;10401759;28;19943;-49
2023/05/08 13:56:21;;;;;;;;;;;;;;;13.98;95.82;97908.50;10400584;28;20028;-50
2023/05/08 14:01:20;;;;;;;15.63;9.70;;;;;;;13.84;97.50;97893.88;10403252;28;19912;-50
2023/05/08 14:06:19;;;;;;;;;;;;;;;13.92;98.10;97928.59;10402936;28;20021;-52
2023/05/08 14:11:18;;;;;;;17.23;12.43;;;;;;;13.93;98.37;97933.75;10403225;28;19986;-51
2023/05/08 14:16:17;;;;;;;;;;;;;;;13.94;99.42;97959.00;10403206;28;20364;-51
2023/05/08 14:21:16;;;;;;;24.17;17.67;;;;;;;14.12;100.00;97954.44;10402283;28;19912;-52
2023/05/08 14:26:15;;;;;;;;;;;;;;;13.53;100.00;97836.84;10403673;28;20025;-51
2023/05/08 14:31:14;;;;;;;21.95;14.93;;;;;;;14.47;100.00;97937.44;10402001;28;19916;-50
2023/05/08 14:36:13;;;;;;;;;;;;;;;14.56;100.00;97955.59;10402353;28;20660;-51
2023/05/08 14:41:11;;;;;;;15.43;11.93;;;;;;;14.34;99.45;97957.66;10402111;28;20011;-49
2023/05/08 14:46:11;;;;;;;;;;;;;;;14.27;100.00;97948.16;10401504;28;20567;-49
2023/05/08 14:51:11;;;;;;;15.15;10.82;;;;;;;14.12;99.05;97957.88;10398661;28;20009;-49
2023/05/08 14:56:11;;;;;;;16.33;11.40;;;;;;;13.73;98.78;97923.56;10400863;28;20688;-51
2023/05/08 15:01:10;;;;;;;18.15;13.88;;;;;;;14.09;100.00;97942.28;10399356;28;20345;-50
2023/05/08 15:06:08;;;;;;;;;;;;;;;14.07;100.00;97937.97;10401891;28;20529;-52
2023/05/08 15:11:07;;;;;;;18.60;13.98;;;;;;;13.97;100.00;97947.66;10403502;28;19955;-52
2023/05/08 15:16:06;;;;;;;;;;;;;;;14.01;100.00;97943.25;10401124;28;20032;-52
2023/05/08 15:21:05;;;;;;;20.08;13.48;;;;;;;13.96;100.00;97936.34;10400544;28;19931;-52
2023/05/08 15:26:04;;;;;;;;;;;;;;;13.92;100.00;97939.88;10401691;28;20522;-49
2023/05/08 15:31:03;;;;;;;15.95;12.57;;;;;;;13.73;100.00;97954.00;10401777;28;19934;-50
2023/05/08 15:36:02;;;;;;;21.13;14.10;;;;;;;13.75;100.00;97941.81;10400475;28;20119;-51
2023/05/08 15:41:01;;;;;;;20.38;14.40;;;;;;;13.40;100.00;97862.19;10401222;28;20568;-52
2023/05/08 15:46:00;;;;;;;;;;;;;;;13.90;100.00;97936.41;10401398;28;20379;-49
2023/05/08 15:50:59;;;;;;;17.03;13.30;;;;;;;13.92;100.00;97939.03;10403185;28;19920;-52
2023/05/08 15:55:58;;;;;;;;;;;;;;;13.81;100.00;97936.50;10406594;28;20024;-50
2023/05/08 16:00:57;;;;;;;13.85;10.73;;;;;;;13.63;99.58;97947.13;10404453;28;20305;-50
2023/05/08 16:05:56;;;;;;;;;;;;;;;13.55;99.93;97945.47;10406782;28;20478;-52
2023/05/08 16:10:55;;;;;;;17.63;12.95;;;;;;;13.54;99.88;97932.47;10410741;28;19983;-52
2023/05/08 16:15:53;;;;;;;;;;;;;;;13.56;99.86;97934.19;10412103;28;20039;-51
2023/05/08 16:20:52;;;;;;;14.43;11.60;;;;;;;13.70;99.39;97938.38;10411637;28;20006;-50
2023/05/08 16:25:51;;;;;;;;;;;;;;;13.76;99.54;97935.72;10410854;28;20104;-52
2023/05/08 16:30:50;;;;;;;18.70;13.88;;;;;;;13.94;100.00;97939.88;10409538;28;20389;-51
2023/05/08 16:35:49;;;;;;;;;;;;;;;14.06;99.96;97939.72;10411895;28;20047;-52
2023/05/08 16:40:47;;;;;;;15.18;10.75;;;;;;;14.16;99.98;97940.47;10410212;28;20485;-52
2023/05/08 16:45:48;;;;;;;;;;;;;;;14.24;100.00;97935.13;10409219;28;20486;-52
2023/05/08 16:50:47;;;;;;;14.90;12.35;;;;;;;14.40;100.00;97942.78;10406205;28;20015;-52
2023/05/08 16:55:46;;;;;;;;;;;;;;;14.43;100.00;97939.25;10407261;28;20028;-51
2023/05/08 17:00:45;;;;;;;17.47;15.47;;;;;;;14.18;98.92;97956.97;10406268;28;19959;-51
2023/05/08 17:05:44;;;;;;;;;;;;;;;13.96;99.31;97953.72;10406040;28;20031;-50
2023/05/08 17:10:43;;;;;;;20.13;14.90;;;;;;;14.04;100.00;97969.31;10405526;28;20485;-52
2023/05/08 17:15:41;;;;;;;;;;;;;;;14.09;99.14;97967.53;10406137;28;20043;-51
2023/05/08 17:20:41;;;;;;;17.75;13.73;;;;;;;13.98;99.00;97963.31;10404241;28;19970;-50
2023/05/08 17:25:40;;;;;;;25.92;13.40;;;;;;;14.03;100.00;97962.34;10405504;28;20064;-51
2023/05/08 17:30:39;;;;;;;;;;;;;;;14.15;100.00;97977.91;10404588;28;20052;-51
2023/05/08 17:35:38;;;;;;;22.07;16.27;;;;;;;14.16;99.66;97984.84;10404754;28;19920;-50
2023/05/08 17:40:38;;;;;;;;;;;;;;;14.13;99.88;97995.31;10404196;28;20040;-51
2023/05/08 17:45:36;;;;;;;;;;;;;;;14.16;99.63;98005.72;10405121;28;20373;-50
2023/05/08 17:50:38;;;;;;;16.25;11.43;;;;;;;14.11;98.89;98010.13;10404136;28;20499;-51
2023/05/08 17:55:37;;;;;;;18.83;12.50;;;;;;;14.05;98.04;98005.81;10403804;28;20068;-51
2023/05/08 18:00:36;;;;;;;;;;;;;;;14.07;99.78;98009.28;10403785;28;20026;-50
2023/05/08 18:05:36;;;;;;;21.43;15.90;;;;;;;13.78;98.28;97979.16;10403843;28;19987;-51
2023/05/08 18:10:35;;;;;;;21.42;15.70;;;;;;;13.88;98.14;98031.22;10402672;28;20060;-51
2023/05/08 18:15:37;;;;;;;21.90;15.10;;;;;;;13.92;98.37;98027.72;10402075;28;20131;-51
2023/05/08 18:20:36;;;;;;;23.10;17.23;;;;;;;13.77;97.94;98042.66;10402107;28;20124;-51
2023/05/08 18:25:35;;;;;;;;;;;;;;;13.80;99.14;98041.75;10403343;28;20025;-51
2023/05/08 18:30:35;;;;;;;17.73;13.48;;;;;;;13.49;98.29;98005.47;10403740;28;19925;-51
2023/05/08 18:35:34;;;;;;;22.42;14.65;;;;;;;13.43;98.15;97992.50;10404333;28;20120;-53
2023/05/08 18:40:33;;;;;;;;;;;;;;;13.70;99.48;98055.72;10402591;28;20021;-51
2023/05/08 18:45:31;;;;;;;19.45;14.70;;;;;;;13.71;100.00;98075.72;10398229;28;20481;-49
2023/05/08 18:50:30;;;;;;;;;;;;;;;13.74;99.21;98068.72;10404826;28;20395;-51
2023/05/08 18:55:29;;;;;;;27.80;19.27;;;;;;;13.69;100.00;98059.22;10405621;28;19917;-51
2023/05/08 19:00:28;;;;;;;;;;;;;;;13.78;100.00;98073.06;10404590;28;20064;-51
2023/05/08 19:05:27;;;;;;;19.77;15.73;;;;;;;13.90;100.00;98076.44;10404647;28;20019;-50
2023/05/08 19:10:26;;;;;;;;;;;;;;;13.89;99.25;98083.41;10405210;28;20137;-51
2023/05/08 19:15:25;;;;;;;26.63;14.55;;;;;;;13.92;99.20;98080.75;10405578;28;19924;-51
2023/05/08 19:20:23;;;;;;;;;;;;;;;13.94;98.93;98086.81;10404017;28;20079;-51
2023/05/08 19:25:22;;;;;;;19.08;14.80;;;;;;;13.84;98.77;98084.31;10403863;28;20011;-51
2023/05/08 19:30:21;;;;;;;;;;;;;;;13.77;99.05;98091.31;10404536;28;20032;-52
2023/05/08 19:35:20;;;;;;;20.95;15.25;;;;;;;13.63;98.96;98062.72;10404323;28;20352;-50
2023/05/08 19:40:19;;;;;;;;;;;;;;;13.82;98.29;98093.88;10406088;28;20526;-51
2023/05/08 19:45:18;;;;;;;28.85;20.65;;;;;;;13.87;98.27;98087.75;10412091;28;19912;-51
2023/05/08 19:50:17;;;;;;;;;;;;;;;13.80;98.31;98088.69;10408906;28;20048;-50
2023/05/08 19:55:17;;;;;;;23.00;17.60;;;;;;;13.69;98.68;98088.78;10409204;28;19956;-51
2023/05/08 20:00:16;;;;;;;23.73;16.77;;;;;;;13.47;99.58;98079.34;10408260;28;20669;-51
2023/05/08 20:05:15;;;;;;;;;;;;;;;13.50;99.48;98093.25;10409076;28;20154;-50
2023/05/08 20:10:13;;;;;;;24.93;17.03;;;;;;;13.57;99.74;98089.75;10408008;28;19926;-51
2023/05/08 20:15:12;;;;;;;;;;;;;;;13.57;99.73;98088.88;10407855;28;20039;-51
2023/05/08 20:20:11;;;;;;;18.10;15.20;;;;;;;13.65;99.51;98100.09;10408324;28;19923;-50
2023/05/08 20:25:10;;;;;;;18.70;14.82;;;;;;;13.73;99.16;98098.31;10407269;28;20083;-48
2023/05/08 20:30:10;;;;;;;;;;;;;;;13.83;98.46;98095.63;10410162;28;20111;-51
2023/05/08 20:35:08;;;;;;;19.27;15.13;;;;;;;13.86;98.68;98078.19;10407680;28;20115;-50
2023/05/08 20:40:07;;;;;;;;;;;;;;;13.90;98.04;98082.50;10407019;28;20134;-49
2023/05/08 20:45:07;;;;;;;20.55;17.00;;;;;;;13.42;98.33;98079.41;10406678;28;19934;-49
2023/05/08 20:50:07;;;;;;;20.17;16.55;;;;;;;13.29;98.86;98077.75;10406562;28;20137;-51
2023/05/08 20:55:06;;;;;;;21.27;16.60;;;;;;;12.86;99.68;98045.00;10404515;28;20131;-51
2023/05/08 21:00:07;;;;;;;21.02;16.90;;;;;;;13.11;100.00;98073.50;10404327;28;20060;-49
2023/05/08 21:05:06;;;;;;;22.23;18.23;;;;;;;13.09;100.00;98076.16;10408105;28;20120;-49
2023/05/08 21:10:06;;;;;;;22.90;17.58;;;;;;;13.27;100.00;98069.06;10406240;28;20116;-48
2023/05/08 21:15:05;;;;;;;24.67;19.60;;;;;;;13.20;100.00;98072.59;10405335;28;20127;-50
2023/05/08 21:20:05;;;;;;;24.10;19.63;;;;;;;13.24;99.58;98066.50;10406311;28;20064;-50
2023/05/08 21:25:04;;;;;;;29.48;20.02;;;;;;;13.21;99.73;98043.94;10405231;28;20419;-49
2023/05/08 21:30:04;;;;;;;26.40;19.88;;;;;;;13.27;99.42;98048.22;10404633;28;20060;-49
2023/05/08 21:35:03;;;;;;;29.45;21.85;;;;;;;13.24;99.14;98051.72;10405491;28;20064;-51
2023/05/08 21:40:03;;;;;;;30.30;22.15;;;;;;;13.02;99.45;98055.31;10404549;28;20479;-50
2023/05/08 21:45:02;;;;;;;30.98;22.42;;;;;;;12.81;100.00;98056.31;10405798;28;20074;-48
2023/05/08 21:50:01;;;;;;;32.88;22.75;;;;;;;12.77;100.00;98072.84;10404125;28;20485;-51
2023/05/08 21:55:01;;;;;;;30.30;21.27;;;;;;;12.68;100.00;98066.78;10403414;28;20135;-50
2023/05/08 22:00:00;;;;;;;26.08;19.10;;;;;;;12.56;100.00;98068.59;10403939;28;20143;-48
2023/05/08 22:04:59;;;;;;;;;;;;;;;12.25;100.00;98072.13;10403970;28;20991;-49
2023/05/08 22:09:58;;;;;;;27.48;19.13;;;;;;;11.96;100.00;98069.56;10402356;28;20628;-51
2023/05/08 22:14:57;;;;;;;26.08;18.02;;;;;;;11.95;100.00;98070.47;10402777;28;20418;-49
2023/05/08 22:19:55;;;;;;;;;;;;;;;11.82;100.00;98074.78;10403080;28;20024;-51
2023/05/08 22:24:55;;;;;;;23.63;18.90;;;;;;;11.84;100.00;98072.19;10399865;28;20405;-51
2023/05/08 22:29:53;;;;;;;29.27;19.52;;;;;;;11.83;100.00;98080.84;10402280;28;20485;-50
2023/05/08 22:34:54;;;;;;;;;;;;;;;11.83;100.00;98081.75;10403534;28;20494;-51
2023/05/08 22:39:53;;;;;;;25.65;20.23;;;;;;;11.84;100.00;98078.25;10402524;28;20003;-49
2023/05/08 22:44:52;;;;;;;;;;;;;;;11.94;100.00;98086.91;10400854;28;20028;-50
2023/05/08 22:49:51;;;;;;;27.00;20.83;;;;;;;12.00;100.00;98078.25;10405388;28;19920;-49
2023/05/08 22:54:50;;;;;;;26.83;19.77;;;;;;;11.75;100.00;98026.25;10407641;28;20069;-50
2023/05/08 22:59:49;;;;;;;;;;;;;;;12.13;100.00;98087.75;10405466;28;20032;-49
2023/05/08 23:04:47;;;;;;;27.58;20.42;;;;;;;11.98;100.00;98085.19;10405569;28;19921;-49
2023/05/08 23:09:47;;;;;;;29.13;21.80;;;;;;;11.94;100.00;98080.84;10405095;28;20411;-50
2023/05/08 23:14:46;;;;;;;31.08;23.10;;;;;;;11.87;100.00;98083.44;10403829;28;20542;-49
2023/05/08 23:19:45;;;;;;;;;;;;;;;11.71;100.00;98054.88;10405490;28;20474;-51
2023/05/08 23:24:44;;;;;;;32.35;22.70;;;;;;;11.99;100.00;98079.09;10404672;28;19934;-50